Surface observations / Quebec / CYHU

Quebec | Canada | USA | France | UK | Europe | Elsewhere

Display: Info & Location for CYHU | Help decoding METAR

CYHU MONTREAL/ST HUBERT A QB CN
Raw surface observations for station CYHU
CYHU 280000Z AUTO 25010KT 9SM CLR M11/M20 A3045 RMK SLP313=
CYHU 272300Z AUTO 25013G20KT 9SM CLR M11/M21 A3043 RMK SLP306=
CYHU 272200Z AUTO 25016G25KT 9SM CLR M10/M21 A3041 RMK SLP300=
CYHU 272100Z AUTO 25018KT 9SM CLR M10/M20 A3040 RMK SLP296=
CYHU 272000Z AUTO 25016G23KT 9SM CLR M10/M20 A3039 RMK SLP293=
CYHU 271900Z AUTO 24015G20KT 9SM CLR M11/M20 A3038 RMK SLP290=
CYHU 271800Z AUTO 24017G23KT 9SM CLR M12/M21 A3039 RMK SLP294=
CYHU 271700Z AUTO 23015KT 9SM CLR M12/M21 A3041 RMK SLP299=
CYHU 271600Z AUTO 25013KT 9SM CLR M13/M21 A3040 RMK SLP297=
CYHU 271500Z AUTO 22007KT 210V270 9SM CLR M14/M22 A3040 RMK SLP297=
CYHU 271400Z AUTO 22007KT 9SM CLR M16/M22 A3039 RMK SLP293=
CYHU 271300Z AUTO 23008KT 9SM CLR M18/M22 A3037 RMK SLP287=
CYHU 271200Z AUTO 22006KT 9SM CLR M19/M22 A3034 RMK SLP276=
CYHU 271100Z AUTO 22004KT 9SM CLR M22/M24 A3031 RMK SLP268=
CYHU 271000Z AUTO 00000KT 9SM CLR M22/M25 A3029 RMK SLP261=
CYHU 270900Z AUTO 20002KT 8SM CLR M20/M24 A3027 RMK SLP253=
CYHU 270836Z AUTO 17005KT 6SM HZ CLR M21/M24 A3026 RMK SLP250=
CYHU 270829Z AUTO 17004KT 5SM HZ FEW160 M21/M24 A3026 RMK SLP250=
CYHU 270800Z AUTO 30002KT 9SM CLR M20/M24 A3025 RMK SLP246=
CYHU 270700Z AUTO 29003KT 9SM FEW160 M16/M22 A3024 RMK SLP243=
CYHU 270600Z AUTO 27004KT 9SM CLR M16/M22 A3023 RMK SLP238=
CYHU 270500Z AUTO 25003KT 9SM BKN150 M16/M23 A3022 RMK SLP234=
CYHU 270400Z AUTO 27007KT 9SM FEW120 M15/M23 A3020 RMK SLP230=
CYHU 270300Z AUTO 25006KT 9SM CLR M14/M22 A3019 RMK SLP226=
CYHU 270200Z AUTO 24008KT 9SM BKN110 BKN130 M14/M22 A3019 RMK SLP224=
CYHU 270100Z AUTO 24007KT 9SM FEW120 SCT140 M14/M22 A3018 RMK SLP222=
CYHU 270000Z AUTO 18006KT 9SM BKN190 BKN210 M15/M22 A3016 RMK SLP216=